sensor_id;sensor_type;location;lat;lon;timestamp;temperature;humidity
5697;DHT22;2873;50.966;7.210;2024-03-02T00:01:22;8.40;99.90
5697;DHT22;2873;50.966;7.210;2024-03-02T00:03:48;8.40;99.90
5697;DHT22;2873;50.966;7.210;2024-03-02T00:06:13;8.40;99.90
5697;DHT22;2873;50.966;7.210;2024-03-02T00:08:39;8.50;99.90
5697;DHT22;2873;50.966;7.210;2024-03-02T00:11:05;8.30;99.90
5697;DHT22;2873;50.966;7.210;2024-03-02T00:13:30;8.40;99.90
5697;DHT22;2873;50.966;7.210;2024-03-02T00:15:57;8.40;99.90
5697;DHT22;2873;50.966;7.210;2024-03-02T00:20:57;8.50;99.90
5697;DHT22;2873;50.966;7.210;2024-03-02T00:23:23;8.70;99.90
5697;DHT22;2873;50.966;7.210;2024-03-02T00:25:51;8.50;99.90
5697;DHT22;2873;50.966;7.210;2024-03-02T00:28:34;8.50;99.90
5697;DHT22;2873;50.966;7.210;2024-03-02T00:31:08;8.40;99.90
5697;DHT22;2873;50.966;7.210;2024-03-02T00:33:45;8.40;99.90
5697;DHT22;2873;50.966;7.210;2024-03-02T00:36:12;8.40;99.90
5697;DHT22;2873;50.966;7.210;2024-03-02T00:38:47;8.60;99.90
5697;DHT22;2873;50.966;7.210;2024-03-02T00:41:31;8.50;99.90
5697;DHT22;2873;50.966;7.210;2024-03-02T00:44:04;8.40;99.90
5697;DHT22;2873;50.966;7.210;2024-03-02T00:46:35;8.60;99.90
5697;DHT22;2873;50.966;7.210;2024-03-02T00:49:17;8.40;99.90
5697;DHT22;2873;50.966;7.210;2024-03-02T00:51:46;8.40;99.90
5697;DHT22;2873;50.966;7.210;2024-03-02T00:54:14;8.60;99.90
5697;DHT22;2873;50.966;7.210;2024-03-02T00:56:41;8.50;99.90
5697;DHT22;2873;50.966;7.210;2024-03-02T00:59:07;8.50;99.90
5697;DHT22;2873;50.966;7.210;2024-03-02T01:01:33;8.50;99.90
5697;DHT22;2873;50.966;7.210;2024-03-02T01:03:59;8.60;99.90
5697;DHT22;2873;50.966;7.210;2024-03-02T01:06:25;8.60;99.90
5697;DHT22;2873;50.966;7.210;2024-03-02T01:08:50;8.60;99.90
5697;DHT22;2873;50.966;7.210;2024-03-02T01:11:16;8.70;99.90
5697;DHT22;2873;50.966;7.210;2024-03-02T01:13:43;8.60;99.90
5697;DHT22;2873;50.966;7.210;2024-03-02T01:16:09;8.70;99.90
5697;DHT22;2873;50.966;7.210;2024-03-02T01:18:34;8.60;99.90
5697;DHT22;2873;50.966;7.210;2024-03-02T01:21:00;8.60;99.90
5697;DHT22;2873;50.966;7.210;2024-03-02T01:23:25;8.60;99.90
5697;DHT22;2873;50.966;7.210;2024-03-02T01:25:51;8.60;99.90
5697;DHT22;2873;50.966;7.210;2024-03-02T01:28:17;8.80;99.90
5697;DHT22;2873;50.966;7.210;2024-03-02T01:30:44;8.70;99.90
5697;DHT22;2873;50.966;7.210;2024-03-02T01:33:09;8.60;99.90
5697;DHT22;2873;50.966;7.210;2024-03-02T01:35:35;8.60;99.90
5697;DHT22;2873;50.966;7.210;2024-03-02T01:38:01;8.70;99.90
5697;DHT22;2873;50.966;7.210;2024-03-02T01:40:27;8.70;99.90
5697;DHT22;2873;50.966;7.210;2024-03-02T01:42:54;8.70;99.90
5697;DHT22;2873;50.966;7.210;2024-03-02T01:45:20;8.60;99.90
5697;DHT22;2873;50.966;7.210;2024-03-02T01:47:45;8.60;99.90
5697;DHT22;2873;50.966;7.210;2024-03-02T01:50:11;8.60;99.90
5697;DHT22;2873;50.966;7.210;2024-03-02T01:52:37;8.70;99.90
5697;DHT22;2873;50.966;7.210;2024-03-02T01:55:03;8.70;99.90
5697;DHT22;2873;50.966;7.210;2024-03-02T01:57:33;8.60;99.90
5697;DHT22;2873;50.966;7.210;2024-03-02T01:59:59;8.70;99.90
5697;DHT22;2873;50.966;7.210;2024-03-02T02:02:25;8.60;99.90
5697;DHT22;2873;50.966;7.210;2024-03-02T02:04:51;8.70;99.90
5697;DHT22;2873;50.966;7.210;2024-03-02T02:07:16;8.50;99.90
5697;DHT22;2873;50.966;7.210;2024-03-02T02:09:42;8.70;99.90
5697;DHT22;2873;50.966;7.210;2024-03-02T02:12:09;8.70;99.90
5697;DHT22;2873;50.966;7.210;2024-03-02T02:14:35;8.60;99.90
5697;DHT22;2873;50.966;7.210;2024-03-02T02:17:01;8.70;99.90
5697;DHT22;2873;50.966;7.210;2024-03-02T02:19:27;8.60;99.90
5697;DHT22;2873;50.966;7.210;2024-03-02T02:21:53;8.50;99.90
5697;DHT22;2873;50.966;7.210;2024-03-02T02:24:18;8.60;99.90
5697;DHT22;2873;50.966;7.210;2024-03-02T02:26:44;8.70;99.90
5697;DHT22;2873;50.966;7.210;2024-03-02T02:29:09;8.60;99.90
5697;DHT22;2873;50.966;7.210;2024-03-02T02:31:39;8.60;99.90
5697;DHT22;2873;50.966;7.210;2024-03-02T02:34:05;8.50;99.90
5697;DHT22;2873;50.966;7.210;2024-03-02T02:36:32;8.50;99.90
5697;DHT22;2873;50.966;7.210;2024-03-02T02:39:01;8.50;99.90
5697;DHT22;2873;50.966;7.210;2024-03-02T02:41:29;8.50;99.90
5697;DHT22;2873;50.966;7.210;2024-03-02T02:43:55;8.60;99.90
5697;DHT22;2873;50.966;7.210;2024-03-02T02:46:20;8.50;99.90
5697;DHT22;2873;50.966;7.210;2024-03-02T02:48:46;8.40;99.90
5697;DHT22;2873;50.966;7.210;2024-03-02T02:51:12;8.50;99.90
5697;DHT22;2873;50.966;7.210;2024-03-02T02:53:37;8.50;99.90
5697;DHT22;2873;50.966;7.210;2024-03-02T02:56:08;8.50;99.90
5697;DHT22;2873;50.966;7.210;2024-03-02T02:58:34;8.50;99.90
5697;DHT22;2873;50.966;7.210;2024-03-02T03:00:59;8.50;99.90
5697;DHT22;2873;50.966;7.210;2024-03-02T03:03:25;8.60;99.90
5697;DHT22;2873;50.966;7.210;2024-03-02T03:05:51;8.50;99.90
5697;DHT22;2873;50.966;7.210;2024-03-02T03:08:16;8.60;99.90
5697;DHT22;2873;50.966;7.210;2024-03-02T03:10:42;8.50;99.90
5697;DHT22;2873;50.966;7.210;2024-03-02T03:13:08;8.60;99.90
5697;DHT22;2873;50.966;7.210;2024-03-02T03:15:37;8.60;99.90
5697;DHT22;2873;50.966;7.210;2024-03-02T03:18:04;8.80;99.90
5697;DHT22;2873;50.966;7.210;2024-03-02T03:20:30;8.90;99.90
5697;DHT22;2873;50.966;7.210;2024-03-02T03:22:57;8.80;99.90
5697;DHT22;2873;50.966;7.210;2024-03-02T03:25:23;9.00;99.90
5697;DHT22;2873;50.966;7.210;2024-03-02T03:27:48;9.00;99.90
5697;DHT22;2873;50.966;7.210;2024-03-02T03:30:14;8.80;99.90
5697;DHT22;2873;50.966;7.210;2024-03-02T03:32:40;8.80;99.90
5697;DHT22;2873;50.966;7.210;2024-03-02T03:35:06;8.80;99.90
5697;DHT22;2873;50.966;7.210;2024-03-02T03:37:32;8.80;99.90
5697;DHT22;2873;50.966;7.210;2024-03-02T03:40:02;8.90;99.90
5697;DHT22;2873;50.966;7.210;2024-03-02T03:42:28;8.80;99.90
5697;DHT22;2873;50.966;7.210;2024-03-02T03:44:54;8.70;99.90
5697;DHT22;2873;50.966;7.210;2024-03-02T03:47:19;8.90;99.90
5697;DHT22;2873;50.966;7.210;2024-03-02T03:49:45;8.70;99.90
5697;DHT22;2873;50.966;7.210;2024-03-02T03:52:11;8.80;99.90
5697;DHT22;2873;50.966;7.210;2024-03-02T03:54:36;8.80;99.90
5697;DHT22;2873;50.966;7.210;2024-03-02T03:57:03;8.80;99.90
5697;DHT22;2873;50.966;7.210;2024-03-02T03:59:29;8.60;99.90
5697;DHT22;2873;50.966;7.210;2024-03-02T04:01:55;8.70;99.90
5697;DHT22;2873;50.966;7.210;2024-03-02T04:04:21;8.80;99.90
5697;DHT22;2873;50.966;7.210;2024-03-02T04:06:46;8.80;99.90
5697;DHT22;2873;50.966;7.210;2024-03-02T04:09:12;8.70;99.90
5697;DHT22;2873;50.966;7.210;2024-03-02T04:11:38;8.80;99.90
5697;DHT22;2873;50.966;7.210;2024-03-02T04:14:03;8.90;99.90
5697;DHT22;2873;50.966;7.210;2024-03-02T04:16:31;8.70;99.90
5697;DHT22;2873;50.966;7.210;2024-03-02T04:18:56;8.70;99.90
5697;DHT22;2873;50.966;7.210;2024-03-02T04:21:22;8.60;99.90
5697;DHT22;2873;50.966;7.210;2024-03-02T04:23:48;8.60;99.90
5697;DHT22;2873;50.966;7.210;2024-03-02T04:26:13;8.80;99.90
5697;DHT22;2873;50.966;7.210;2024-03-02T04:28:40;8.80;99.90
5697;DHT22;2873;50.966;7.210;2024-03-02T04:31:05;8.80;99.90
5697;DHT22;2873;50.966;7.210;2024-03-02T04:33:31;8.80;99.90
5697;DHT22;2873;50.966;7.210;2024-03-02T04:35:56;8.70;99.90
5697;DHT22;2873;50.966;7.210;2024-03-02T04:38:23;8.80;99.90
5697;DHT22;2873;50.966;7.210;2024-03-02T04:40:49;8.60;99.90
5697;DHT22;2873;50.966;7.210;2024-03-02T04:43:14;8.80;99.90
5697;DHT22;2873;50.966;7.210;2024-03-02T04:45:42;8.70;99.90
5697;DHT22;2873;50.966;7.210;2024-03-02T04:48:08;8.70;99.90
5697;DHT22;2873;50.966;7.210;2024-03-02T04:50:33;8.80;99.90
5697;DHT22;2873;50.966;7.210;2024-03-02T04:52:59;8.80;99.90
5697;DHT22;2873;50.966;7.210;2024-03-02T04:55:24;8.90;99.90
5697;DHT22;2873;50.966;7.210;2024-03-02T04:58:10;8.90;99.90
5697;DHT22;2873;50.966;7.210;2024-03-02T05:00:36;8.90;99.90
5697;DHT22;2873;50.966;7.210;2024-03-02T05:03:02;8.70;99.90
5697;DHT22;2873;50.966;7.210;2024-03-02T05:05:28;8.90;99.90
5697;DHT22;2873;50.966;7.210;2024-03-02T05:07:54;8.70;99.90
5697;DHT22;2873;50.966;7.210;2024-03-02T05:10:19;8.70;99.90
5697;DHT22;2873;50.966;7.210;2024-03-02T05:12:45;8.60;99.90
5697;DHT22;2873;50.966;7.210;2024-03-02T05:15:15;8.70;99.90
5697;DHT22;2873;50.966;7.210;2024-03-02T05:17:41;8.50;99.90
5697;DHT22;2873;50.966;7.210;2024-03-02T05:20:10;8.50;99.90
5697;DHT22;2873;50.966;7.210;2024-03-02T05:22:36;8.40;99.90
5697;DHT22;2873;50.966;7.210;2024-03-02T05:25:03;8.50;99.90
5697;DHT22;2873;50.966;7.210;2024-03-02T05:27:28;8.60;99.90
5697;DHT22;2873;50.966;7.210;2024-03-02T05:29:54;8.50;99.90
5697;DHT22;2873;50.966;7.210;2024-03-02T05:32:20;8.50;99.90
5697;DHT22;2873;50.966;7.210;2024-03-02T05:34:46;8.60;99.90
5697;DHT22;2873;50.966;7.210;2024-03-02T05:37:12;8.60;99.90
5697;DHT22;2873;50.966;7.210;2024-03-02T05:39:37;8.30;99.90
5697;DHT22;2873;50.966;7.210;2024-03-02T05:42:03;8.20;99.90
5697;DHT22;2873;50.966;7.210;2024-03-02T05:44:29;8.10;99.90
5697;DHT22;2873;50.966;7.210;2024-03-02T05:46:55;8.10;99.90
5697;DHT22;2873;50.966;7.210;2024-03-02T05:49:21;8.10;99.90
5697;DHT22;2873;50.966;7.210;2024-03-02T05:51:47;8.10;99.90
5697;DHT22;2873;50.966;7.210;2024-03-02T05:54:13;8.10;99.90
5697;DHT22;2873;50.966;7.210;2024-03-02T05:56:39;8.20;99.90
5697;DHT22;2873;50.966;7.210;2024-03-02T05:59:04;8.30;99.90
5697;DHT22;2873;50.966;7.210;2024-03-02T06:01:39;8.20;99.90
5697;DHT22;2873;50.966;7.210;2024-03-02T06:04:06;8.20;99.90
5697;DHT22;2873;50.966;7.210;2024-03-02T06:06:31;8.00;99.90
5697;DHT22;2873;50.966;7.210;2024-03-02T06:09:03;8.10;99.90
5697;DHT22;2873;50.966;7.210;2024-03-02T06:11:34;8.10;99.90
5697;DHT22;2873;50.966;7.210;2024-03-02T06:13:59;8.00;99.90
5697;DHT22;2873;50.966;7.210;2024-03-02T06:16:25;8.00;99.90
5697;DHT22;2873;50.966;7.210;2024-03-02T06:18:50;8.10;99.90
5697;DHT22;2873;50.966;7.210;2024-03-02T06:21:16;8.00;99.90
5697;DHT22;2873;50.966;7.210;2024-03-02T06:23:43;7.90;99.90
5697;DHT22;2873;50.966;7.210;2024-03-02T06:26:09;8.00;99.90
5697;DHT22;2873;50.966;7.210;2024-03-02T06:28:34;7.80;99.90
5697;DHT22;2873;50.966;7.210;2024-03-02T06:31:01;7.90;99.90
5697;DHT22;2873;50.966;7.210;2024-03-02T06:33:27;7.90;99.90
5697;DHT22;2873;50.966;7.210;2024-03-02T06:35:54;7.80;99.90
5697;DHT22;2873;50.966;7.210;2024-03-02T06:38:19;8.00;99.90
5697;DHT22;2873;50.966;7.210;2024-03-02T06:40:45;7.90;99.90
5697;DHT22;2873;50.966;7.210;2024-03-02T06:43:10;7.90;99.90
5697;DHT22;2873;50.966;7.210;2024-03-02T06:45:36;7.90;99.90
5697;DHT22;2873;50.966;7.210;2024-03-02T06:48:02;7.80;99.90
5697;DHT22;2873;50.966;7.210;2024-03-02T06:50:27;7.90;99.90
5697;DHT22;2873;50.966;7.210;2024-03-02T06:52:53;8.00;99.90
5697;DHT22;2873;50.966;7.210;2024-03-02T06:55:21;8.00;99.90
5697;DHT22;2873;50.966;7.210;2024-03-02T06:57:47;7.90;99.90
5697;DHT22;2873;50.966;7.210;2024-03-02T07:00:13;7.90;99.90
5697;DHT22;2873;50.966;7.210;2024-03-02T07:02:39;7.80;99.90
5697;DHT22;2873;50.966;7.210;2024-03-02T07:05:07;7.80;99.90
5697;DHT22;2873;50.966;7.210;2024-03-02T07:07:33;7.80;99.90
5697;DHT22;2873;50.966;7.210;2024-03-02T07:10:00;7.90;99.90
5697;DHT22;2873;50.966;7.210;2024-03-02T07:12:26;7.90;99.90
5697;DHT22;2873;50.966;7.210;2024-03-02T07:14:52;7.90;99.90
5697;DHT22;2873;50.966;7.210;2024-03-02T07:17:30;7.90;99.90
5697;DHT22;2873;50.966;7.210;2024-03-02T07:19:56;7.90;99.90
5697;DHT22;2873;50.966;7.210;2024-03-02T07:22:22;8.10;99.90
5697;DHT22;2873;50.966;7.210;2024-03-02T07:24:48;8.00;99.90
5697;DHT22;2873;50.966;7.210;2024-03-02T07:27:15;8.10;99.90
5697;DHT22;2873;50.966;7.210;2024-03-02T07:29:41;8.10;99.90
5697;DHT22;2873;50.966;7.210;2024-03-02T07:32:07;8.20;99.90
5697;DHT22;2873;50.966;7.210;2024-03-02T07:34:33;8.20;99.90
5697;DHT22;2873;50.966;7.210;2024-03-02T07:36:59;8.30;99.90
5697;DHT22;2873;50.966;7.210;2024-03-02T07:39:25;8.30;99.90
5697;DHT22;2873;50.966;7.210;2024-03-02T07:41:50;8.20;99.90
5697;DHT22;2873;50.966;7.210;2024-03-02T07:44:16;8.50;99.90
5697;DHT22;2873;50.966;7.210;2024-03-02T07:46:45;8.70;99.90
5697;DHT22;2873;50.966;7.210;2024-03-02T07:49:12;8.60;99.90
5697;DHT22;2873;50.966;7.210;2024-03-02T07:51:39;8.70;99.90
5697;DHT22;2873;50.966;7.210;2024-03-02T07:54:05;8.90;99.90
5697;DHT22;2873;50.966;7.210;2024-03-02T07:56:31;8.80;99.90
5697;DHT22;2873;50.966;7.210;2024-03-02T07:58:56;8.80;99.90
5697;DHT22;2873;50.966;7.210;2024-03-02T08:01:27;8.70;99.90
5697;DHT22;2873;50.966;7.210;2024-03-02T08:03:53;8.90;99.90
5697;DHT22;2873;50.966;7.210;2024-03-02T08:06:18;8.80;99.90
5697;DHT22;2873;50.966;7.210;2024-03-02T08:08:46;8.70;99.90
5697;DHT22;2873;50.966;7.210;2024-03-02T08:11:12;8.80;99.90
5697;DHT22;2873;50.966;7.210;2024-03-02T08:13:38;8.90;99.90
5697;DHT22;2873;50.966;7.210;2024-03-02T08:16:04;9.00;99.90
5697;DHT22;2873;50.966;7.210;2024-03-02T08:18:32;9.10;99.90
5697;DHT22;2873;50.966;7.210;2024-03-02T08:20:58;9.20;99.90
5697;DHT22;2873;50.966;7.210;2024-03-02T08:23:23;9.30;99.90
5697;DHT22;2873;50.966;7.210;2024-03-02T08:25:49;9.40;99.90
5697;DHT22;2873;50.966;7.210;2024-03-02T08:28:14;9.40;99.90
5697;DHT22;2873;50.966;7.210;2024-03-02T08:30:40;9.20;99.90
5697;DHT22;2873;50.966;7.210;2024-03-02T08:33:05;9.40;99.90
5697;DHT22;2873;50.966;7.210;2024-03-02T08:35:31;9.50;99.90
5697;DHT22;2873;50.966;7.210;2024-03-02T08:38:04;9.60;99.90
5697;DHT22;2873;50.966;7.210;2024-03-02T08:40:30;9.60;99.90
5697;DHT22;2873;50.966;7.210;2024-03-02T08:42:55;9.70;99.90
5697;DHT22;2873;50.966;7.210;2024-03-02T08:45:21;9.90;99.90
5697;DHT22;2873;50.966;7.210;2024-03-02T08:47:47;9.90;99.90
5697;DHT22;2873;50.966;7.210;2024-03-02T08:50:12;9.80;99.90
5697;DHT22;2873;50.966;7.210;2024-03-02T08:52:38;9.80;99.90
5697;DHT22;2873;50.966;7.210;2024-03-02T08:55:04;10.00;99.90
5697;DHT22;2873;50.966;7.210;2024-03-02T08:57:30;10.00;99.90
5697;DHT22;2873;50.966;7.210;2024-03-02T08:59:56;10.20;99.90
5697;DHT22;2873;50.966;7.210;2024-03-02T09:02:22;10.10;99.90
5697;DHT22;2873;50.966;7.210;2024-03-02T09:04:48;10.10;99.90
5697;DHT22;2873;50.966;7.210;2024-03-02T09:07:14;10.30;99.90
5697;DHT22;2873;50.966;7.210;2024-03-02T09:09:39;10.30;99.90
5697;DHT22;2873;50.966;7.210;2024-03-02T09:12:06;10.10;99.90
5697;DHT22;2873;50.966;7.210;2024-03-02T09:14:32;10.20;99.90
5697;DHT22;2873;50.966;7.210;2024-03-02T09:16:58;10.10;99.90
5697;DHT22;2873;50.966;7.210;2024-03-02T09:19:23;10.20;99.90
5697;DHT22;2873;50.966;7.210;2024-03-02T09:21:49;10.30;99.90
5697;DHT22;2873;50.966;7.210;2024-03-02T09:24:15;10.50;99.90
5697;DHT22;2873;50.966;7.210;2024-03-02T09:26:41;10.60;99.90
5697;DHT22;2873;50.966;7.210;2024-03-02T09:29:06;10.80;99.90
5697;DHT22;2873;50.966;7.210;2024-03-02T09:31:32;10.90;99.90
5697;DHT22;2873;50.966;7.210;2024-03-02T09:33:58;11.10;99.90
5697;DHT22;2873;50.966;7.210;2024-03-02T09:36:23;11.20;99.90
5697;DHT22;2873;50.966;7.210;2024-03-02T09:38:49;11.20;99.90
5697;DHT22;2873;50.966;7.210;2024-03-02T09:41:15;11.80;99.90
5697;DHT22;2873;50.966;7.210;2024-03-02T09:43:41;11.80;99.90
5697;DHT22;2873;50.966;7.210;2024-03-02T09:46:10;12.10;99.90
5697;DHT22;2873;50.966;7.210;2024-03-02T09:48:36;12.10;99.90
5697;DHT22;2873;50.966;7.210;2024-03-02T09:51:01;12.00;99.90
5697;DHT22;2873;50.966;7.210;2024-03-02T09:53:33;12.50;99.90
5697;DHT22;2873;50.966;7.210;2024-03-02T09:56:02;12.70;99.90
5697;DHT22;2873;50.966;7.210;2024-03-02T09:58:28;13.10;99.90
5697;DHT22;2873;50.966;7.210;2024-03-02T10:00:54;13.20;99.90
5697;DHT22;2873;50.966;7.210;2024-03-02T10:03:19;13.60;99.90
5697;DHT22;2873;50.966;7.210;2024-03-02T10:05:46;14.30;99.90
5697;DHT22;2873;50.966;7.210;2024-03-02T10:08:11;15.00;99.90
5697;DHT22;2873;50.966;7.210;2024-03-02T10:10:38;15.00;99.90
5697;DHT22;2873;50.966;7.210;2024-03-02T10:13:09;14.90;99.90
5697;DHT22;2873;50.966;7.210;2024-03-02T10:15:36;15.50;99.90
5697;DHT22;2873;50.966;7.210;2024-03-02T10:18:12;15.60;99.90
5697;DHT22;2873;50.966;7.210;2024-03-02T10:20:39;15.80;99.90
5697;DHT22;2873;50.966;7.210;2024-03-02T10:23:11;15.60;99.90
5697;DHT22;2873;50.966;7.210;2024-03-02T10:25:37;15.70;99.90
5697;DHT22;2873;50.966;7.210;2024-03-02T10:28:03;15.70;99.90
5697;DHT22;2873;50.966;7.210;2024-03-02T10:30:31;15.80;99.90
5697;DHT22;2873;50.966;7.210;2024-03-02T10:32:57;15.90;99.90
5697;DHT22;2873;50.966;7.210;2024-03-02T10:35:23;16.30;99.90
5697;DHT22;2873;50.966;7.210;2024-03-02T10:37:49;16.40;99.90
5697;DHT22;2873;50.966;7.210;2024-03-02T10:40:15;16.20;99.90
5697;DHT22;2873;50.966;7.210;2024-03-02T10:42:42;16.10;99.90
5697;DHT22;2873;50.966;7.210;2024-03-02T10:45:12;16.50;99.90
5697;DHT22;2873;50.966;7.210;2024-03-02T10:47:38;16.50;99.90
5697;DHT22;2873;50.966;7.210;2024-03-02T10:50:07;16.60;99.90
5697;DHT22;2873;50.966;7.210;2024-03-02T10:52:37;16.20;99.90
5697;DHT22;2873;50.966;7.210;2024-03-02T10:55:05;16.20;99.90
5697;DHT22;2873;50.966;7.210;2024-03-02T10:57:52;16.40;99.90
5697;DHT22;2873;50.966;7.210;2024-03-02T11:00:24;16.70;99.90
5697;DHT22;2873;50.966;7.210;2024-03-02T11:03:03;16.80;99.90
5697;DHT22;2873;50.966;7.210;2024-03-02T11:05:34;17.10;99.90
5697;DHT22;2873;50.966;7.210;2024-03-02T11:08:04;17.00;99.90
5697;DHT22;2873;50.966;7.210;2024-03-02T11:10:37;16.50;99.90
5697;DHT22;2873;50.966;7.210;2024-03-02T11:13:09;16.70;99.90
5697;DHT22;2873;50.966;7.210;2024-03-02T11:15:35;16.90;99.90
5697;DHT22;2873;50.966;7.210;2024-03-02T11:18:04;17.10;99.90
5697;DHT22;2873;50.966;7.210;2024-03-02T11:20:38;16.80;99.90
5697;DHT22;2873;50.966;7.210;2024-03-02T11:23:08;17.00;99.90
5697;DHT22;2873;50.966;7.210;2024-03-02T11:25:34;17.10;99.90
5697;DHT22;2873;50.966;7.210;2024-03-02T11:28:04;17.00;99.90
5697;DHT22;2873;50.966;7.210;2024-03-02T11:33:01;16.80;99.90
5697;DHT22;2873;50.966;7.210;2024-03-02T11:35:35;16.50;99.90
5697;DHT22;2873;50.966;7.210;2024-03-02T11:38:01;17.10;99.90
5697;DHT22;2873;50.966;7.210;2024-03-02T11:40:29;17.00;99.90
5697;DHT22;2873;50.966;7.210;2024-03-02T11:42:55;17.30;99.90
5697;DHT22;2873;50.966;7.210;2024-03-02T11:45:25;17.00;99.90
5697;DHT22;2873;50.966;7.210;2024-03-02T11:47:55;17.00;99.90
5697;DHT22;2873;50.966;7.210;2024-03-02T11:50:33;17.00;99.90
5697;DHT22;2873;50.966;7.210;2024-03-02T11:53:00;16.80;99.90
5697;DHT22;2873;50.966;7.210;2024-03-02T11:55:26;16.80;99.90
5697;DHT22;2873;50.966;7.210;2024-03-02T11:57:55;16.50;99.90
5697;DHT22;2873;50.966;7.210;2024-03-02T12:00:21;16.60;99.90
5697;DHT22;2873;50.966;7.210;2024-03-02T12:02:59;16.70;99.90
5697;DHT22;2873;50.966;7.210;2024-03-02T12:05:25;17.10;99.90
5697;DHT22;2873;50.966;7.210;2024-03-02T12:08:02;16.80;99.90
5697;DHT22;2873;50.966;7.210;2024-03-02T12:10:30;16.70;99.90
5697;DHT22;2873;50.966;7.210;2024-03-02T12:13:00;16.80;99.90
5697;DHT22;2873;50.966;7.210;2024-03-02T12:15:27;16.90;99.90
5697;DHT22;2873;50.966;7.210;2024-03-02T12:17:57;17.20;99.90
5697;DHT22;2873;50.966;7.210;2024-03-02T12:20:24;18.00;99.90
5697;DHT22;2873;50.966;7.210;2024-03-02T12:22:53;18.00;99.90
5697;DHT22;2873;50.966;7.210;2024-03-02T12:25:20;17.90;99.90
5697;DHT22;2873;50.966;7.210;2024-03-02T12:27:49;16.60;99.90
5697;DHT22;2873;50.966;7.210;2024-03-02T12:30:19;16.50;99.90
5697;DHT22;2873;50.966;7.210;2024-03-02T12:32:45;16.40;99.90
5697;DHT22;2873;50.966;7.210;2024-03-02T12:35:11;16.70;99.90
5697;DHT22;2873;50.966;7.210;2024-03-02T12:37:50;16.70;99.90
5697;DHT22;2873;50.966;7.210;2024-03-02T12:40:17;17.00;99.90
5697;DHT22;2873;50.966;7.210;2024-03-02T12:42:47;17.20;99.90
5697;DHT22;2873;50.966;7.210;2024-03-02T12:45:13;17.60;99.90
5697;DHT22;2873;50.966;7.210;2024-03-02T12:47:40;18.00;99.90
5697;DHT22;2873;50.966;7.210;2024-03-02T12:50:07;18.10;99.90
5697;DHT22;2873;50.966;7.210;2024-03-02T12:52:36;17.90;99.90
5697;DHT22;2873;50.966;7.210;2024-03-02T12:55:03;17.90;99.90
5697;DHT22;2873;50.966;7.210;2024-03-02T12:57:30;18.10;99.90
5697;DHT22;2873;50.966;7.210;2024-03-02T13:00:00;18.30;99.90
5697;DHT22;2873;50.966;7.210;2024-03-02T13:02:30;18.70;99.90
5697;DHT22;2873;50.966;7.210;2024-03-02T13:04:57;18.80;99.90
5697;DHT22;2873;50.966;7.210;2024-03-02T13:07:26;19.20;99.90
5697;DHT22;2873;50.966;7.210;2024-03-02T13:09:55;19.50;99.90
5697;DHT22;2873;50.966;7.210;2024-03-02T13:12:22;19.70;99.90
5697;DHT22;2873;50.966;7.210;2024-03-02T13:14:49;20.30;99.90
5697;DHT22;2873;50.966;7.210;2024-03-02T13:17:17;20.20;99.90
5697;DHT22;2873;50.966;7.210;2024-03-02T13:19:56;20.20;99.90
5697;DHT22;2873;50.966;7.210;2024-03-02T13:22:22;20.80;99.90
5697;DHT22;2873;50.966;7.210;2024-03-02T13:24:49;21.00;99.90
5697;DHT22;2873;50.966;7.210;2024-03-02T13:27:15;20.80;99.90
5697;DHT22;2873;50.966;7.210;2024-03-02T13:29:41;21.00;99.90
5697;DHT22;2873;50.966;7.210;2024-03-02T13:32:07;20.90;99.90
5697;DHT22;2873;50.966;7.210;2024-03-02T13:34:33;20.60;99.90
5697;DHT22;2873;50.966;7.210;2024-03-02T13:36:58;19.90;99.90
5697;DHT22;2873;50.966;7.210;2024-03-02T13:39:26;19.40;99.90
5697;DHT22;2873;50.966;7.210;2024-03-02T13:41:52;19.00;99.90
5697;DHT22;2873;50.966;7.210;2024-03-02T13:44:22;18.70;99.90
5697;DHT22;2873;50.966;7.210;2024-03-02T13:46:48;18.30;99.90
5697;DHT22;2873;50.966;7.210;2024-03-02T13:49:14;18.50;99.90
5697;DHT22;2873;50.966;7.210;2024-03-02T13:51:40;18.30;99.90
5697;DHT22;2873;50.966;7.210;2024-03-02T13:54:05;17.70;99.90
5697;DHT22;2873;50.966;7.210;2024-03-02T13:56:31;17.40;99.90
5697;DHT22;2873;50.966;7.210;2024-03-02T13:58:58;17.00;99.90
5697;DHT22;2873;50.966;7.210;2024-03-02T14:01:24;16.50;99.90
5697;DHT22;2873;50.966;7.210;2024-03-02T14:03:49;16.60;99.90
5697;DHT22;2873;50.966;7.210;2024-03-02T14:06:16;16.50;99.90
5697;DHT22;2873;50.966;7.210;2024-03-02T14:08:41;16.50;99.90
5697;DHT22;2873;50.966;7.210;2024-03-02T14:11:10;16.50;99.90
5697;DHT22;2873;50.966;7.210;2024-03-02T14:13:40;16.10;99.90
5697;DHT22;2873;50.966;7.210;2024-03-02T14:16:06;16.00;99.90
5697;DHT22;2873;50.966;7.210;2024-03-02T14:18:32;15.80;99.90
5697;DHT22;2873;50.966;7.210;2024-03-02T14:20:57;16.00;99.90
5697;DHT22;2873;50.966;7.210;2024-03-02T14:23:23;16.10;99.90
5697;DHT22;2873;50.966;7.210;2024-03-02T14:25:48;15.90;99.90
5697;DHT22;2873;50.966;7.210;2024-03-02T14:28:14;16.10;99.90
5697;DHT22;2873;50.966;7.210;2024-03-02T14:30:41;16.00;99.90
5697;DHT22;2873;50.966;7.210;2024-03-02T14:33:07;15.80;99.90
5697;DHT22;2873;50.966;7.210;2024-03-02T14:35:33;15.70;99.90
5697;DHT22;2873;50.966;7.210;2024-03-02T14:37:59;15.80;99.90
5697;DHT22;2873;50.966;7.210;2024-03-02T14:40:24;15.60;99.90
5697;DHT22;2873;50.966;7.210;2024-03-02T14:42:52;15.40;99.90
5697;DHT22;2873;50.966;7.210;2024-03-02T14:45:18;15.40;99.90
5697;DHT22;2873;50.966;7.210;2024-03-02T14:47:43;15.50;99.90
5697;DHT22;2873;50.966;7.210;2024-03-02T14:50:09;15.40;99.90
5697;DHT22;2873;50.966;7.210;2024-03-02T14:52:35;15.20;99.90
5697;DHT22;2873;50.966;7.210;2024-03-02T14:55:01;15.10;99.90
5697;DHT22;2873;50.966;7.210;2024-03-02T14:57:29;15.00;99.90
5697;DHT22;2873;50.966;7.210;2024-03-02T14:59:54;14.90;99.90
5697;DHT22;2873;50.966;7.210;2024-03-02T15:02:20;14.90;99.90
5697;DHT22;2873;50.966;7.210;2024-03-02T15:04:46;15.10;99.90
5697;DHT22;2873;50.966;7.210;2024-03-02T15:07:15;15.20;99.90
5697;DHT22;2873;50.966;7.210;2024-03-02T15:09:41;15.10;99.90
5697;DHT22;2873;50.966;7.210;2024-03-02T15:12:07;15.10;99.90
5697;DHT22;2873;50.966;7.210;2024-03-02T15:14:38;15.20;99.90
5697;DHT22;2873;50.966;7.210;2024-03-02T15:17:04;15.20;99.90
5697;DHT22;2873;50.966;7.210;2024-03-02T15:19:30;15.20;99.90
5697;DHT22;2873;50.966;7.210;2024-03-02T15:21:55;15.10;99.90
5697;DHT22;2873;50.966;7.210;2024-03-02T15:24:21;15.20;99.90
5697;DHT22;2873;50.966;7.210;2024-03-02T15:26:46;15.10;99.90
5697;DHT22;2873;50.966;7.210;2024-03-02T15:29:12;15.30;99.90
5697;DHT22;2873;50.966;7.210;2024-03-02T15:31:37;15.20;99.90
5697;DHT22;2873;50.966;7.210;2024-03-02T15:34:03;15.10;99.90
5697;DHT22;2873;50.966;7.210;2024-03-02T15:36:28;14.90;99.90
5697;DHT22;2873;50.966;7.210;2024-03-02T15:38:54;15.10;99.90
5697;DHT22;2873;50.966;7.210;2024-03-02T15:41:20;15.10;99.90
5697;DHT22;2873;50.966;7.210;2024-03-02T15:43:45;15.00;99.90
5697;DHT22;2873;50.966;7.210;2024-03-02T15:46:12;15.00;99.90
5697;DHT22;2873;50.966;7.210;2024-03-02T15:48:37;14.90;99.90
5697;DHT22;2873;50.966;7.210;2024-03-02T15:51:03;14.90;99.90
5697;DHT22;2873;50.966;7.210;2024-03-02T15:53:30;15.00;99.90
5697;DHT22;2873;50.966;7.210;2024-03-02T15:55:55;14.80;99.90
5697;DHT22;2873;50.966;7.210;2024-03-02T15:58:21;15.00;99.90
5697;DHT22;2873;50.966;7.210;2024-03-02T16:00:47;15.00;99.90
5697;DHT22;2873;50.966;7.210;2024-03-02T16:03:12;14.90;99.90
5697;DHT22;2873;50.966;7.210;2024-03-02T16:05:38;14.90;99.90
5697;DHT22;2873;50.966;7.210;2024-03-02T16:08:04;14.90;99.90
5697;DHT22;2873;50.966;7.210;2024-03-02T16:10:30;15.00;99.90
5697;DHT22;2873;50.966;7.210;2024-03-02T16:12:55;14.90;99.90